This is the latest recevied weather packets stored in our database for station/object KI5BDI. If no packets are shown the sender has not sent any weather packets the latest 10 day(s).
| Time | Temp. | Humidity | Pressure | Rain* | Wind** | Luminosity | Snow |
|---|---|---|---|---|---|---|---|
| 1777523742 | 16.67° C | 97% | 1014.3 hPa | 1.78 mm | - | 0 W/m² | - |
| 1777523122 | 16.67° C | 97% | 1014.1 hPa | 1.78 mm | - | 0 W/m² | - |
| 1777520140 | 16.67° C | 96% | 1014.2 hPa | 0 mm | - | 0 W/m² | - |
| 1777515321 | 16.67° C | 96% | 1012.7 hPa | 0 mm | - | 0 W/m² | - |
| 1777512325 | 17.22° C | 97% | 1012.6 hPa | 0 mm | - | 0 W/m² | - |
| 1777508743 | 17.78° C | 98% | 1011.8 hPa | 0 mm | - | 10 W/m² | - |
| 1777505727 | 17.78° C | 98% | 1012.6 hPa | 0 mm | - | 17 W/m² | - |
| 1777505127 | 17.78° C | 98% | 1012.6 hPa | 0 mm | - | 21 W/m² | - |
| 1777496121 | 16.67° C | 99% | 1011.2 hPa | 5.84 mm | - | 210 W/m² | - |
| 1777495519 | 16.67° C | 99% | 1010.8 hPa | 6.35 mm | - | 323 W/m² | - |
| 1777491920 | 16.11° C | 97% | 1012.9 hPa | 0.25 mm | - | 20 W/m² | - |
| 1777491320 | 16.11° C | 96% | 1012.8 hPa | 0.25 mm | - | 19 W/m² | - |
| 1777488931 | 16.67° C | 94% | 1012.9 hPa | 0 mm | - | 53 W/m² | - |
| 1777480523 | 16.67° C | 92% | 1014.2 hPa | 0 mm | - | 123 W/m² | - |
| 1777479323 | 16.67° C | 92% | 1014.1 hPa | 0 mm | - | 114 W/m² | - |
| 1777478117 | 16.67° C | 92% | 1014.2 hPa | 0 mm | - | 131 W/m² | - |
| 1777473918 | 16.11° C | 92% | 1014.4 hPa | 0 mm | - | 59 W/m² | - |
| 1777471519 | 16.67° C | 89% | 1013.9 hPa | 0 mm | - | 129 W/m² | - |
| 1777466119 | 17.22° C | 89% | 1013.5 hPa | 0 mm | - | 23 W/m² | - |
| 1777417531 | 25° C | 93% | 1010.6 hPa | 0 mm | - | 11 W/m² | - |
| 1777416930 | 25° C | 92% | 1010.6 hPa | 0 mm | - | 11 W/m² | - |
| 1777415720 | 25° C | 91% | 1010.3 hPa | 0 mm | - | 13 W/m² | - |
| 1777413339 | 25.56° C | 88% | 1009.4 hPa | 0 mm | - | 22 W/m² | - |
| 1777407920 | 27.22° C | 84% | 1009.7 hPa | 0 mm | - | 248 W/m² | - |
| 1777404317 | 26.11° C | 86% | 1011.6 hPa | 0 mm | - | 191 W/m² | - |
* Rain latest hour (hover to see other rain measurements)
** Current wind speed in m/s (hover to see current wind gust speed)